createdAt,value
2018-01-07T00:00:54.407Z,1014
2018-01-07T00:01:57.192Z,1014
2018-01-07T00:02:59.682Z,1014
2018-01-07T00:04:02.176Z,1014
2018-01-07T00:05:04.669Z,1014.1
2018-01-07T00:06:07.451Z,1014.1
2018-01-07T00:07:10.236Z,1014.1
2018-01-07T00:08:12.742Z,1014.1
2018-01-07T00:09:15.226Z,1014.2
2018-01-07T00:10:17.719Z,1014.2
2018-01-07T00:11:20.206Z,1014.2
2018-01-07T00:12:22.699Z,1014.2
2018-01-07T00:13:25.186Z,1014.3
2018-01-07T00:14:27.968Z,1014.3
2018-01-07T00:15:30.450Z,1014.3
2018-01-07T00:16:32.953Z,1014.3
2018-01-07T00:17:35.442Z,1014.3
2018-01-07T00:18:37.922Z,1014.3
2018-01-07T00:19:40.423Z,1014.4
2018-01-07T00:20:42.916Z,1014.4
2018-01-07T00:21:45.409Z,1014.4
2018-01-07T00:22:47.909Z,1014.5
2018-01-07T00:23:50.389Z,1014.4
2018-01-07T00:24:52.885Z,1014.4
2018-01-07T00:25:55.668Z,1014.4
2018-01-07T00:26:58.153Z,1014.4
2018-01-07T00:28:00.687Z,1014.4
2018-01-07T00:29:03.180Z,1014.4
2018-01-07T00:30:05.656Z,1014.4
2018-01-07T00:31:08.459Z,1014.4
2018-01-07T00:32:10.946Z,1014.4
2018-01-07T00:33:13.432Z,1014.4
2018-01-07T00:34:15.924Z,1014.4
2018-01-07T00:35:18.409Z,1014.4
2018-01-07T00:36:20.902Z,1014.4
2018-01-07T00:37:23.385Z,1014.4
2018-01-07T00:38:25.876Z,1014.3
2018-01-07T00:39:28.371Z,1014.3
2018-01-07T00:40:30.843Z,1014.4
2018-01-07T00:41:33.378Z,1014.4
2018-01-07T00:42:35.836Z,1014.4
2018-01-07T00:43:38.337Z,1014.4
2018-01-07T00:44:41.117Z,1014.5
2018-01-07T00:45:43.603Z,1014.5
2018-01-07T00:46:46.089Z,1014.5
2018-01-07T00:47:48.584Z,1014.6
2018-01-07T00:48:51.071Z,1014.6
2018-01-07T00:49:53.553Z,1014.6
2018-01-07T00:50:56.046Z,1014.6
2018-01-07T00:51:58.533Z,1014.7
2018-01-07T00:53:01.027Z,1014.6
2018-01-07T00:54:03.523Z,1014.6
2018-01-07T00:55:06.000Z,1014.7
2018-01-07T00:56:08.798Z,1014.7
2018-01-07T00:57:11.582Z,1014.7
2018-01-07T00:58:14.079Z,1014.6
2018-01-07T00:59:16.856Z,1014.7
2018-01-07T01:00:19.627Z,1014.6
2018-01-07T01:01:22.117Z,1014.7
2018-01-07T01:02:24.613Z,1014.7
2018-01-07T01:03:27.146Z,1014.7
2018-01-07T01:04:29.577Z,1014.7
2018-01-07T01:05:32.646Z,1014.8
2018-01-07T01:06:35.154Z,1014.8
2018-01-07T01:07:37.640Z,1014.9
2018-01-07T01:08:40.122Z,1014.8
2018-01-07T01:09:42.900Z,1014.9
2018-01-07T01:10:45.682Z,1014.9
2018-01-07T01:11:48.472Z,1014.8
2018-01-07T01:12:50.966Z,1014.9
2018-01-07T01:13:53.438Z,1014.9
2018-01-07T01:14:55.926Z,1014.9
2018-01-07T01:15:58.714Z,1014.9
2018-01-07T01:17:01.198Z,1014.9
2018-01-07T01:18:03.694Z,1014.9
2018-01-07T01:19:06.173Z,1014.9
2018-01-07T01:20:08.952Z,1015
2018-01-07T01:21:11.453Z,1015
2018-01-07T01:22:14.229Z,1015
2018-01-07T01:23:16.725Z,1015
2018-01-07T01:24:19.219Z,1015
2018-01-07T01:25:21.709Z,1015.1
2018-01-07T01:26:24.202Z,1015.1
2018-01-07T01:27:26.992Z,1015.1
2018-01-07T01:28:29.465Z,1015.2
2018-01-07T01:29:31.957Z,1015.2
2018-01-07T01:30:34.453Z,1015.1
2018-01-07T01:31:36.938Z,1015.2
2018-01-07T01:32:39.426Z,1015.2
2018-01-07T01:33:41.914Z,1015.2
2018-01-07T01:34:44.400Z,1015.2
2018-01-07T01:35:46.891Z,1015.3
2018-01-07T01:36:49.383Z,1015.3
2018-01-07T01:37:52.164Z,1015.3
2018-01-07T01:38:54.662Z,1015.3
2018-01-07T01:39:57.132Z,1015.3
2018-01-07T01:40:59.623Z,1015.3
2018-01-07T01:42:02.396Z,1015.3
2018-01-07T01:43:05.176Z,1015.3
2018-01-07T01:44:07.666Z,1015.3
2018-01-07T01:45:10.468Z,1015.3
2018-01-07T01:46:12.943Z,1015.3
2018-01-07T01:47:15.736Z,1015.3
2018-01-07T01:48:18.227Z,1015.4
2018-01-07T01:49:20.722Z,1015.4
2018-01-07T01:50:23.210Z,1015.4
2018-01-07T01:51:25.696Z,1015.4
2018-01-07T01:52:28.486Z,1015.4
2018-01-07T01:53:30.980Z,1015.5
2018-01-07T01:54:33.455Z,1015.5
2018-01-07T01:55:35.957Z,1015.5
2018-01-07T01:56:38.442Z,1015.5
2018-01-07T01:57:40.938Z,1015.5
2018-01-07T01:58:43.422Z,1015.5
2018-01-07T01:59:46.206Z,1015.5
2018-01-07T02:00:48.688Z,1015.6
2018-01-07T02:01:51.194Z,1015.6
2018-01-07T02:02:53.980Z,1015.6
2018-01-07T02:03:56.453Z,1015.6
2018-01-07T02:04:58.947Z,1015.6
2018-01-07T02:06:01.722Z,1015.7
2018-01-07T02:07:04.213Z,1015.7
2018-01-07T02:08:07.021Z,1015.7
2018-01-07T02:09:09.501Z,1015.7
2018-01-07T02:10:12.276Z,1015.7
2018-01-07T02:11:15.069Z,1015.8
2018-01-07T02:12:17.554Z,1015.8
2018-01-07T02:13:20.321Z,1015.8
2018-01-07T02:14:22.813Z,1015.8
2018-01-07T02:15:25.304Z,1015.8
2018-01-07T02:16:27.792Z,1015.8
2018-01-07T02:17:30.288Z,1015.8
2018-01-07T02:18:32.769Z,1015.9
2018-01-07T02:19:35.257Z,1015.9
2018-01-07T02:20:37.761Z,1015.9
2018-01-07T02:21:40.253Z,1015.9
2018-01-07T02:22:42.726Z,1016
2018-01-07T02:23:45.526Z,1016
2018-01-07T02:24:48.030Z,1016
2018-01-07T02:25:51.095Z,1016
2018-01-07T02:26:53.878Z,1016
2018-01-07T02:27:56.355Z,1015.9
2018-01-07T02:28:58.843Z,1016
2018-01-07T02:30:01.643Z,1015.9
2018-01-07T02:31:04.128Z,1016
2018-01-07T02:32:06.626Z,1016
2018-01-07T02:33:09.120Z,1016
2018-01-07T02:34:11.614Z,1016
2018-01-07T02:35:14.086Z,1016
2018-01-07T02:36:16.584Z,1016
2018-01-07T02:37:19.081Z,1016
2018-01-07T02:38:21.571Z,1016.1
2018-01-07T02:39:24.070Z,1016.1
2018-01-07T02:40:26.558Z,1016.1
2018-01-07T02:41:29.644Z,1016.1
2018-01-07T02:42:32.146Z,1016.1
2018-01-07T02:43:34.626Z,1016.1
2018-01-07T02:44:37.121Z,1016.1
2018-01-07T02:45:39.605Z,1016.1
2018-01-07T02:46:42.097Z,1016.1
2018-01-07T02:47:44.583Z,1016.1
2018-01-07T02:48:47.373Z,1016.1
2018-01-07T02:49:49.860Z,1016.1
2018-01-07T02:50:52.351Z,1016.1
2018-01-07T02:51:54.840Z,1016.2
2018-01-07T02:52:57.339Z,1016.2
2018-01-07T02:53:59.811Z,1016.2
2018-01-07T02:55:02.617Z,1016.2
2018-01-07T02:56:05.088Z,1016.2
2018-01-07T02:57:07.578Z,1016.2
2018-01-07T02:58:10.067Z,1016.2
2018-01-07T02:59:12.870Z,1016.2
2018-01-07T03:00:15.358Z,1016.3
2018-01-07T03:01:18.146Z,1016.3
2018-01-07T03:02:20.928Z,1016.3
2018-01-07T03:03:23.698Z,1016.3
2018-01-07T03:04:26.192Z,1016.3
2018-01-07T03:05:28.677Z,1016.3
2018-01-07T03:06:31.167Z,1016.3
2018-01-07T03:07:33.651Z,1016.3
2018-01-07T03:08:36.153Z,1016.3
2018-01-07T03:09:38.625Z,1016.3
2018-01-07T03:10:41.120Z,1016.4
2018-01-07T03:11:43.604Z,1016.4
2018-01-07T03:12:46.093Z,1016.4
2018-01-07T03:13:48.878Z,1016.4
2018-01-07T03:14:51.377Z,1016.4
2018-01-07T03:15:53.855Z,1016.5
2018-01-07T03:16:56.353Z,1016.5
2018-01-07T03:17:59.501Z,1016.5
2018-01-07T03:19:02.020Z,1016.5
2018-01-07T03:20:04.508Z,1016.6
2018-01-07T03:21:07.304Z,1016.6
2018-01-07T03:22:09.791Z,1016.6
2018-01-07T03:23:12.574Z,1016.7
2018-01-07T03:24:15.066Z,1016.7
2018-01-07T03:25:17.846Z,1016.7
2018-01-07T03:26:20.339Z,1016.7
2018-01-07T03:27:22.825Z,1016.7
2018-01-07T03:28:25.304Z,1016.8
2018-01-07T03:29:27.812Z,1016.8
2018-01-07T03:30:30.297Z,1016.8
2018-01-07T03:31:33.668Z,1016.9
2018-01-07T03:32:36.564Z,1016.9
2018-01-07T03:33:39.097Z,1016.9
2018-01-07T03:34:41.570Z,1016.9
2018-01-07T03:35:44.072Z,1016.9
2018-01-07T03:36:46.610Z,1016.9
2018-01-07T03:37:49.182Z,1017
2018-01-07T03:38:51.750Z,1017
2018-01-07T03:39:54.268Z,1017
2018-01-07T03:40:57.079Z,1017
2018-01-07T03:41:59.608Z,1017.1
2018-01-07T03:43:02.392Z,1017.1
2018-01-07T03:44:05.458Z,1017.1
2018-01-07T03:45:08.237Z,1017.1
2018-01-07T03:46:10.726Z,1017.1
2018-01-07T03:47:13.217Z,1017.1
2018-01-07T03:48:15.700Z,1017.2
2018-01-07T03:49:18.210Z,1017.2
2018-01-07T03:50:20.701Z,1017.3
2018-01-07T03:51:23.226Z,1017.2
2018-01-07T03:52:25.760Z,1017.3
2018-01-07T03:53:28.304Z,1017.3
2018-01-07T03:54:30.857Z,1017.4
2018-01-07T03:55:33.370Z,1017.4
2018-01-07T03:56:36.169Z,1017.4
2018-01-07T03:57:39.339Z,1017.4
2018-01-07T03:58:42.187Z,1017.4
2018-01-07T03:59:44.715Z,1017.5
2018-01-07T04:00:47.434Z,1017.5
2018-01-07T04:01:49.947Z,1017.5
2018-01-07T04:02:52.750Z,1017.6
2018-01-07T04:03:55.945Z,1017.6
2018-01-07T04:04:58.800Z,1017.6
2018-01-07T04:06:01.581Z,1017.7
2018-01-07T04:07:04.208Z,1017.6
2018-01-07T04:08:07.118Z,1017.7
2018-01-07T04:09:09.926Z,1017.7
2018-01-07T04:10:12.660Z,1017.8
2018-01-07T04:11:15.325Z,1017.8
2018-01-07T04:12:18.627Z,1017.7
2018-01-07T04:13:21.304Z,1017.8
2018-01-07T04:14:24.133Z,1017.8
2018-01-07T04:15:27.118Z,1017.8
2018-01-07T04:16:29.814Z,1017.8
2018-01-07T04:17:33.258Z,1017.9
2018-01-07T04:18:35.799Z,1017.9
2018-01-07T04:19:39.035Z,1017.9
2018-01-07T04:20:42.323Z,1017.9
2018-01-07T04:21:44.904Z,1017.9
2018-01-07T04:22:47.844Z,1017.9
2018-01-07T04:23:51.327Z,1018
2018-01-07T04:24:53.938Z,1018
2018-01-07T04:25:56.529Z,1018
2018-01-07T04:26:59.308Z,1018.1
2018-01-07T04:28:01.990Z,1018
2018-01-07T04:29:05.287Z,1018
2018-01-07T04:30:08.131Z,1018
2018-01-07T04:31:10.618Z,1018
2018-01-07T04:32:14.050Z,1018.1
2018-01-07T04:33:16.589Z,1018.1
2018-01-07T04:34:19.439Z,1018.1
2018-01-07T04:35:21.935Z,1018.1
2018-01-07T04:36:24.446Z,1018.1
2018-01-07T04:37:27.008Z,1018.2
2018-01-07T04:38:29.559Z,1018.2
2018-01-07T04:39:32.084Z,1018.2
2018-01-07T04:40:34.857Z,1018.2
2018-01-07T04:41:37.418Z,1018.1
2018-01-07T04:42:39.965Z,1018.2
2018-01-07T04:43:42.745Z,1018.2
2018-01-07T04:44:45.253Z,1018.3
2018-01-07T04:45:47.822Z,1018.3
2018-01-07T04:46:50.382Z,1018.3
2018-01-07T04:47:52.901Z,1018.3
2018-01-07T04:48:55.733Z,1018.3
2018-01-07T04:49:58.218Z,1018.4
2018-01-07T04:51:01.013Z,1018.4
2018-01-07T04:52:03.500Z,1018.4
2018-01-07T04:53:05.983Z,1018.4
2018-01-07T04:54:08.475Z,1018.4
2018-01-07T04:55:10.970Z,1018.5
2018-01-07T04:56:13.759Z,1018.5
2018-01-07T04:57:16.248Z,1018.5
2018-01-07T04:58:18.725Z,1018.6
2018-01-07T04:59:21.205Z,1018.6
2018-01-07T05:00:23.716Z,1018.5
2018-01-07T05:01:26.190Z,1018.6
2018-01-07T05:02:28.977Z,1018.6
2018-01-07T05:03:31.466Z,1018.6
2018-01-07T05:04:34.270Z,1018.6
2018-01-07T05:05:36.750Z,1018.7
2018-01-07T05:06:39.249Z,1018.7
2018-01-07T05:07:42.035Z,1018.7
2018-01-07T05:08:44.518Z,1018.7
2018-01-07T05:09:47.011Z,1018.7
2018-01-07T05:10:49.499Z,1018.7
2018-01-07T05:11:52.278Z,1018.7
2018-01-07T05:12:54.771Z,1018.8
2018-01-07T05:13:57.251Z,1018.8
2018-01-07T05:14:59.747Z,1018.8
2018-01-07T05:16:02.562Z,1018.8
2018-01-07T05:17:05.039Z,1018.9
2018-01-07T05:18:07.522Z,1018.9
2018-01-07T05:19:10.307Z,1019
2018-01-07T05:20:12.789Z,1019
2018-01-07T05:21:15.284Z,1019
2018-01-07T05:22:17.774Z,1019
2018-01-07T05:23:20.254Z,1019.1
2018-01-07T05:24:22.765Z,1019.1
2018-01-07T05:25:25.548Z,1019.1
2018-01-07T05:26:28.022Z,1019.1
2018-01-07T05:27:30.516Z,1019.2
2018-01-07T05:28:33.000Z,1019.1
2018-01-07T05:29:35.495Z,1019.2
2018-01-07T05:30:37.972Z,1019.1
2018-01-07T05:31:41.056Z,1019.2
2018-01-07T05:32:43.542Z,1019.2
2018-01-07T05:33:46.342Z,1019.2
2018-01-07T05:34:48.834Z,1019.2
2018-01-07T05:35:51.321Z,1019.3
2018-01-07T05:36:53.807Z,1019.2
2018-01-07T05:37:56.305Z,1019.3
2018-01-07T05:38:58.782Z,1019.3
2018-01-07T05:40:01.553Z,1019.4
2018-01-07T05:41:04.058Z,1019.3
2018-01-07T05:42:06.544Z,1019.4
2018-01-07T05:43:09.033Z,1019.4
2018-01-07T05:44:11.524Z,1019.5
2018-01-07T05:45:14.329Z,1019.4
2018-01-07T05:46:16.821Z,1019.5
2018-01-07T05:47:19.312Z,1019.5
2018-01-07T05:48:21.794Z,1019.5
2018-01-07T05:49:24.285Z,1019.5
2018-01-07T05:50:26.773Z,1019.6
2018-01-07T05:51:29.268Z,1019.6
2018-01-07T05:52:31.741Z,1019.6
2018-01-07T05:53:34.232Z,1019.6
2018-01-07T05:54:36.724Z,1019.6
2018-01-07T05:55:39.216Z,1019.7
2018-01-07T05:56:41.704Z,1019.7
2018-01-07T05:57:44.189Z,1019.8
2018-01-07T05:58:46.668Z,1019.8
2018-01-07T05:59:49.169Z,1019.8
2018-01-07T06:00:51.659Z,1019.8
2018-01-07T06:01:54.143Z,1019.9
2018-01-07T06:02:56.629Z,1019.8
2018-01-07T06:03:59.408Z,1019.8
2018-01-07T06:05:01.905Z,1019.9
2018-01-07T06:06:04.412Z,1019.9
2018-01-07T06:07:06.889Z,1019.9
2018-01-07T06:08:09.394Z,1020
2018-01-07T06:09:11.884Z,1019.9
2018-01-07T06:10:14.371Z,1019.9
2018-01-07T06:11:17.159Z,1019.9
2018-01-07T06:12:19.942Z,1020
2018-01-07T06:13:22.425Z,1020
2018-01-07T06:14:24.931Z,1020
2018-01-07T06:15:27.698Z,1020
2018-01-07T06:16:30.482Z,1020
2018-01-07T06:17:33.259Z,1020
2018-01-07T06:18:35.780Z,1020.1
2018-01-07T06:19:38.244Z,1020.1
2018-01-07T06:20:41.026Z,1020.1
2018-01-07T06:21:44.070Z,1020.2
2018-01-07T06:22:46.572Z,1020.2
2018-01-07T06:23:49.052Z,1020.2
2018-01-07T06:24:51.538Z,1020.3
2018-01-07T06:25:54.032Z,1020.3
2018-01-07T06:26:56.520Z,1020.3
2018-01-07T06:27:59.007Z,1020.3
2018-01-07T06:29:01.508Z,1020.3
2018-01-07T06:30:04.283Z,1020.4
2018-01-07T06:31:06.775Z,1020.4
2018-01-07T06:32:09.251Z,1020.4
2018-01-07T06:33:11.749Z,1020.4
2018-01-07T06:34:14.235Z,1020.5
2018-01-07T06:35:16.723Z,1020.5
2018-01-07T06:36:19.505Z,1020.5
2018-01-07T06:37:21.991Z,1020.6
2018-01-07T06:38:24.491Z,1020.5
2018-01-07T06:39:26.993Z,1020.6
2018-01-07T06:40:29.498Z,1020.6
2018-01-07T06:41:32.011Z,1020.6
2018-01-07T06:42:34.506Z,1020.7
2018-01-07T06:43:36.995Z,1020.7
2018-01-07T06:44:39.767Z,1020.6
2018-01-07T06:45:42.257Z,1020.6
2018-01-07T06:46:44.738Z,1020.7
2018-01-07T06:47:47.248Z,1020.7
2018-01-07T06:48:49.735Z,1020.7
2018-01-07T06:49:52.229Z,1020.7
2018-01-07T06:50:54.717Z,1020.8
2018-01-07T06:51:57.200Z,1020.8
2018-01-07T06:52:59.693Z,1020.8
2018-01-07T06:54:02.191Z,1020.8
2018-01-07T06:55:04.956Z,1020.8
2018-01-07T06:56:07.726Z,1020.8
2018-01-07T06:57:10.224Z,1020.8
2018-01-07T06:58:12.711Z,1020.8
2018-01-07T06:59:15.198Z,1020.9
2018-01-07T07:00:17.690Z,1020.9
2018-01-07T07:01:20.174Z,1020.9
2018-01-07T07:02:22.656Z,1021
2018-01-07T07:03:25.436Z,1021
2018-01-07T07:04:27.921Z,1021
2018-01-07T07:05:30.406Z,1021
2018-01-07T07:06:32.892Z,1021.1
2018-01-07T07:07:35.675Z,1021.1
2018-01-07T07:08:38.175Z,1021.2
2018-01-07T07:09:40.951Z,1021.2
2018-01-07T07:10:43.444Z,1021.2
2018-01-07T07:11:46.228Z,1021.2
2018-01-07T07:12:49.009Z,1021.3
2018-01-07T07:13:51.500Z,1021.3
2018-01-07T07:14:53.992Z,1021.3
2018-01-07T07:15:56.763Z,1021.3
2018-01-07T07:16:59.544Z,1021.3
2018-01-07T07:18:02.027Z,1021.3
2018-01-07T07:19:04.533Z,1021.4
2018-01-07T07:20:07.015Z,1021.3
2018-01-07T07:21:09.499Z,1021.4
2018-01-07T07:22:11.990Z,1021.4
2018-01-07T07:23:14.473Z,1021.5
2018-01-07T07:24:16.960Z,1021.5
2018-01-07T07:25:19.452Z,1021.5
2018-01-07T07:26:21.931Z,1021.5
2018-01-07T07:27:24.433Z,1021.6
2018-01-07T07:28:27.204Z,1021.6
2018-01-07T07:29:29.703Z,1021.6
2018-01-07T07:30:32.474Z,1021.7
2018-01-07T07:31:34.961Z,1021.7
2018-01-07T07:32:37.456Z,1021.7
2018-01-07T07:33:39.940Z,1021.7
2018-01-07T07:34:42.435Z,1021.8
2018-01-07T07:35:44.926Z,1021.8
2018-01-07T07:36:47.407Z,1021.9
2018-01-07T07:37:49.917Z,1021.9
2018-01-07T07:38:52.404Z,1021.9
2018-01-07T07:39:54.880Z,1021.9
2018-01-07T07:40:57.377Z,1022
2018-01-07T07:41:59.859Z,1022
2018-01-07T07:43:02.352Z,1022
2018-01-07T07:44:05.142Z,1022
2018-01-07T07:45:07.901Z,1022
2018-01-07T07:46:10.855Z,1022
2018-01-07T07:47:13.351Z,1022.1
2018-01-07T07:48:15.836Z,1022.1
2018-01-07T07:49:18.417Z,1022.1
2018-01-07T07:50:21.229Z,1022.1
2018-01-07T07:51:23.710Z,1022.1
2018-01-07T07:52:26.217Z,1022.1
2018-01-07T07:53:28.711Z,1022.2
2018-01-07T07:54:31.193Z,1022.2
2018-01-07T07:55:34.299Z,1022.3
2018-01-07T07:56:36.791Z,1022.3
2018-01-07T07:57:39.268Z,1022.3
2018-01-07T07:58:42.052Z,1022.3
2018-01-07T07:59:44.545Z,1022.3
2018-01-07T08:00:47.033Z,1022.3
2018-01-07T08:01:49.541Z,1022.3
2018-01-07T08:02:52.330Z,1022.3
2018-01-07T08:03:54.799Z,1022.3
2018-01-07T08:04:57.292Z,1022.4
2018-01-07T08:05:59.783Z,1022.3
2018-01-07T08:07:02.276Z,1022.3
2018-01-07T08:08:04.759Z,1022.4
2018-01-07T08:09:07.240Z,1022.4
2018-01-07T08:10:09.731Z,1022.3
2018-01-07T08:11:12.232Z,1022.4
2018-01-07T08:12:14.726Z,1022.4
2018-01-07T08:13:17.208Z,1022.4
2018-01-07T08:14:19.704Z,1022.5
2018-01-07T08:15:22.192Z,1022.5
2018-01-07T08:16:24.694Z,1022.5
2018-01-07T08:17:27.472Z,1022.5
2018-01-07T08:18:29.954Z,1022.6
2018-01-07T08:19:32.446Z,1022.5
2018-01-07T08:20:34.945Z,1022.6
2018-01-07T08:21:37.728Z,1022.6
2018-01-07T08:22:40.497Z,1022.6
2018-01-07T08:23:42.984Z,1022.6
2018-01-07T08:24:45.468Z,1022.7
2018-01-07T08:25:48.055Z,1022.7
2018-01-07T08:26:51.134Z,1022.7
2018-01-07T08:27:53.609Z,1022.7
2018-01-07T08:28:56.092Z,1022.7
2018-01-07T08:29:58.889Z,1022.8
2018-01-07T08:31:01.392Z,1022.8
2018-01-07T08:32:04.180Z,1022.8
2018-01-07T08:33:06.672Z,1022.8
2018-01-07T08:34:09.461Z,1022.9
2018-01-07T08:35:11.941Z,1022.8
2018-01-07T08:36:14.447Z,1022.8
2018-01-07T08:37:16.925Z,1022.9
2018-01-07T08:38:19.732Z,1022.9
2018-01-07T08:39:22.226Z,1022.9
2018-01-07T08:40:24.707Z,1022.9
2018-01-07T08:41:27.806Z,1022.9
2018-01-07T08:42:30.306Z,1022.9
2018-01-07T08:43:32.802Z,1022.9
2018-01-07T08:44:35.280Z,1023
2018-01-07T08:45:38.053Z,1022.9
2018-01-07T08:46:40.545Z,1023
2018-01-07T08:47:43.042Z,1023
2018-01-07T08:48:45.538Z,1023
2018-01-07T08:49:48.021Z,1023
2018-01-07T08:50:50.532Z,1023
2018-01-07T08:51:53.010Z,1023
2018-01-07T08:52:55.510Z,1023
2018-01-07T08:53:58.005Z,1023
2018-01-07T08:55:00.493Z,1023.1
2018-01-07T08:56:02.994Z,1023.1
2018-01-07T08:57:05.493Z,1023.1
2018-01-07T08:58:08.275Z,1023.2
2018-01-07T08:59:10.770Z,1023.2
2018-01-07T09:00:13.566Z,1023.2
2018-01-07T09:01:16.077Z,1023.2
2018-01-07T09:02:18.870Z,1023.3
2018-01-07T09:03:21.406Z,1023.3
2018-01-07T09:04:23.856Z,1023.3
2018-01-07T09:05:26.352Z,1023.3
2018-01-07T09:06:29.210Z,1023.3
2018-01-07T09:07:31.690Z,1023.3
2018-01-07T09:08:34.174Z,1023.3
2018-01-07T09:09:36.678Z,1023.3
2018-01-07T09:10:39.168Z,1023.3
2018-01-07T09:11:41.666Z,1023.3
2018-01-07T09:12:44.140Z,1023.3
2018-01-07T09:13:46.633Z,1023.3
2018-01-07T09:14:49.119Z,1023.3
2018-01-07T09:15:51.625Z,1023.3
2018-01-07T09:16:54.150Z,1023.3
2018-01-07T09:17:56.646Z,1023.2
2018-01-07T09:18:59.133Z,1023.3
2018-01-07T09:20:01.658Z,1023.3
2018-01-07T09:21:04.318Z,1023.3
2018-01-07T09:22:07.102Z,1023.3
2018-01-07T09:23:10.341Z,1023.4
2018-01-07T09:24:12.835Z,1023.3
2018-01-07T09:25:15.344Z,1023.4
2018-01-07T09:26:17.835Z,1023.4
2018-01-07T09:27:20.322Z,1023.4
2018-01-07T09:28:22.810Z,1023.4
2018-01-07T09:29:25.308Z,1023.4
2018-01-07T09:30:27.807Z,1023.4
2018-01-07T09:31:30.295Z,1023.5
2018-01-07T09:32:32.786Z,1023.5
2018-01-07T09:33:35.282Z,1023.5
2018-01-07T09:34:37.770Z,1023.5
2018-01-07T09:35:40.566Z,1023.6
2018-01-07T09:36:43.334Z,1023.5
2018-01-07T09:37:46.134Z,1023.6
2018-01-07T09:38:48.665Z,1023.6
2018-01-07T09:39:51.122Z,1023.6
2018-01-07T09:40:53.619Z,1023.6
2018-01-07T09:41:56.106Z,1023.6
2018-01-07T09:42:58.596Z,1023.6
2018-01-07T09:44:01.102Z,1023.7
2018-01-07T09:45:03.596Z,1023.7
2018-01-07T09:46:06.086Z,1023.7
2018-01-07T09:47:08.585Z,1023.7
2018-01-07T09:48:11.070Z,1023.7
2018-01-07T09:49:13.568Z,1023.7
2018-01-07T09:50:16.074Z,1023.7
2018-01-07T09:51:18.551Z,1023.7
2018-01-07T09:52:21.051Z,1023.8
2018-01-07T09:53:23.537Z,1023.8
2018-01-07T09:54:26.032Z,1023.8
2018-01-07T09:55:28.545Z,1023.7
2018-01-07T09:56:31.031Z,1023.8
2018-01-07T09:57:33.850Z,1023.8
2018-01-07T09:58:36.324Z,1023.8
2018-01-07T09:59:38.819Z,1023.8
2018-01-07T10:00:41.610Z,1023.8
2018-01-07T10:01:44.104Z,1023.9
2018-01-07T10:02:46.619Z,1023.9
2018-01-07T10:03:49.106Z,1024
2018-01-07T10:04:51.590Z,1024
2018-01-07T10:05:54.384Z,1024
2018-01-07T10:06:57.467Z,1024
2018-01-07T10:07:59.951Z,1024
2018-01-07T10:09:02.453Z,1024
2018-01-07T10:10:05.240Z,1024.1
2018-01-07T10:11:08.025Z,1024.1
2018-01-07T10:12:10.536Z,1024
2018-01-07T10:13:13.309Z,1024.1
2018-01-07T10:14:16.091Z,1024.1
2018-01-07T10:15:18.595Z,1024.1
2018-01-07T10:16:21.094Z,1024.1
2018-01-07T10:17:23.590Z,1024.1
2018-01-07T10:18:26.470Z,1024.2
2018-01-07T10:19:28.979Z,1024.1
2018-01-07T10:20:31.470Z,1024.1
2018-01-07T10:21:33.963Z,1024.1
2018-01-07T10:22:36.746Z,1024.1
2018-01-07T10:23:39.242Z,1024.1
2018-01-07T10:24:41.742Z,1024.1
2018-01-07T10:25:44.248Z,1024.1
2018-01-07T10:26:46.745Z,1024.1
2018-01-07T10:27:49.259Z,1024
2018-01-07T10:28:51.755Z,1024.1
2018-01-07T10:29:54.241Z,1024.1
2018-01-07T10:30:56.732Z,1024
2018-01-07T10:31:59.248Z,1024
2018-01-07T10:33:01.745Z,1024
2018-01-07T10:34:04.460Z,1024
2018-01-07T10:35:08.660Z,1024
2018-01-07T10:36:11.608Z,1024
2018-01-07T10:37:14.109Z,1024.1
2018-01-07T10:38:16.914Z,1024.1
2018-01-07T10:39:19.679Z,1024.1
2018-01-07T10:40:22.179Z,1024.1
2018-01-07T10:41:24.673Z,1024.1
2018-01-07T10:42:27.446Z,1024.2
2018-01-07T10:43:29.952Z,1024.2
2018-01-07T10:44:32.444Z,1024.2
2018-01-07T10:45:34.934Z,1024.2
2018-01-07T10:46:37.431Z,1024.2
2018-01-07T10:47:39.932Z,1024.2
2018-01-07T10:48:43.023Z,1024.3
2018-01-07T10:49:45.816Z,1024.2
2018-01-07T10:50:48.601Z,1024.2
2018-01-07T10:51:51.391Z,1024.2
2018-01-07T10:52:53.889Z,1024.2
2018-01-07T10:53:56.676Z,1024.2
2018-01-07T10:54:59.164Z,1024.2
2018-01-07T10:56:01.665Z,1024.2
2018-01-07T10:57:04.160Z,1024.2
2018-01-07T10:58:06.659Z,1024.1
2018-01-07T10:59:09.149Z,1024.1
2018-01-07T11:00:11.934Z,1024.2
2018-01-07T11:01:14.434Z,1024.2
2018-01-07T11:02:16.933Z,1024.2
2018-01-07T11:03:19.730Z,1024.2
2018-01-07T11:04:22.220Z,1024.2
2018-01-07T11:05:24.719Z,1024.3
2018-01-07T11:06:27.214Z,1024.2
2018-01-07T11:07:30.003Z,1024.3
2018-01-07T11:08:32.500Z,1024.3
2018-01-07T11:09:35.002Z,1024.3
2018-01-07T11:10:37.498Z,1024.3
2018-01-07T11:11:39.998Z,1024.3
2018-01-07T11:12:42.500Z,1024.3
2018-01-07T11:13:44.992Z,1024.4
2018-01-07T11:14:47.502Z,1024.4
2018-01-07T11:15:49.999Z,1024.4
2018-01-07T11:16:52.487Z,1024.4
2018-01-07T11:17:55.005Z,1024.4
2018-01-07T11:18:57.789Z,1024.4
2018-01-07T11:20:00.588Z,1024.4
2018-01-07T11:21:03.088Z,1024.4
2018-01-07T11:22:05.578Z,1024.4
2018-01-07T11:23:08.072Z,1024.4
2018-01-07T11:24:10.588Z,1024.5
2018-01-07T11:25:13.084Z,1024.5
2018-01-07T11:26:15.577Z,1024.4
2018-01-07T11:27:18.082Z,1024.4
2018-01-07T11:28:20.896Z,1024.4
2018-01-07T11:29:23.386Z,1024.4
2018-01-07T11:30:26.169Z,1024.4
2018-01-07T11:31:28.684Z,1024.4
2018-01-07T11:32:31.178Z,1024.4
2018-01-07T11:33:33.678Z,1024.3
2018-01-07T11:34:36.176Z,1024.4
2018-01-07T11:35:38.670Z,1024.3
2018-01-07T11:36:41.175Z,1024.3
2018-01-07T11:37:43.679Z,1024.4
2018-01-07T11:38:46.166Z,1024.3
2018-01-07T11:39:48.669Z,1024.3
2018-01-07T11:40:51.180Z,1024.3
2018-01-07T11:41:53.982Z,1024.2
2018-01-07T11:42:56.489Z,1024.2
2018-01-07T11:43:58.986Z,1024.3
2018-01-07T11:45:01.551Z,1024.3
2018-01-07T11:46:03.998Z,1024.3
2018-01-07T11:47:06.504Z,1024.2
2018-01-07T11:48:08.991Z,1024.2
2018-01-07T11:49:11.501Z,1024.2
2018-01-07T11:50:13.988Z,1024.2
2018-01-07T11:51:16.821Z,1024.3
2018-01-07T11:52:19.322Z,1024.2
2018-01-07T11:53:22.113Z,1024.2
2018-01-07T11:54:24.611Z,1024.2
2018-01-07T11:55:27.126Z,1024.2
2018-01-07T11:56:29.614Z,1024.2
2018-01-07T11:57:32.125Z,1024.3
2018-01-07T11:58:34.629Z,1024.2
2018-01-07T11:59:37.421Z,1024.3
2018-01-07T12:00:39.934Z,1024.3
2018-01-07T12:01:42.432Z,1024.2
2018-01-07T12:02:44.937Z,1024.3
2018-01-07T12:03:47.451Z,1024.3
2018-01-07T12:04:49.944Z,1024.3
2018-01-07T12:05:52.454Z,1024.3
2018-01-07T12:06:55.269Z,1024.4
2018-01-07T12:07:58.357Z,1024.3
2018-01-07T12:09:00.873Z,1024.3
2018-01-07T12:10:03.955Z,1024.3
2018-01-07T12:11:06.754Z,1024.3
2018-01-07T12:12:09.559Z,1024.3
2018-01-07T12:13:12.097Z,1024.3
2018-01-07T12:14:14.576Z,1024.3
2018-01-07T12:15:17.080Z,1024.3
2018-01-07T12:16:19.589Z,1024.3
2018-01-07T12:17:22.378Z,1024.4
2018-01-07T12:18:24.881Z,1024.3
2018-01-07T12:19:27.382Z,1024.3
2018-01-07T12:20:30.178Z,1024.3
2018-01-07T12:21:33.276Z,1024.3
2018-01-07T12:22:35.784Z,1024.3
2018-01-07T12:23:38.276Z,1024.3
2018-01-07T12:24:40.791Z,1024.3
2018-01-07T12:25:43.300Z,1024.3
2018-01-07T12:26:45.795Z,1024.3
2018-01-07T12:27:48.301Z,1024.3
2018-01-07T12:28:51.110Z,1024.3
2018-01-07T12:29:53.604Z,1024.3
2018-01-07T12:30:56.391Z,1024.3
2018-01-07T12:31:59.183Z,1024.3
2018-01-07T12:33:02.024Z,1024.3
2018-01-07T12:34:04.749Z,1024.3
2018-01-07T12:35:07.258Z,1024.4
2018-01-07T12:36:09.748Z,1024.4
2018-01-07T12:37:12.560Z,1024.4
2018-01-07T12:38:15.070Z,1024.3
2018-01-07T12:39:17.574Z,1024.3
2018-01-07T12:40:20.429Z,1024.3
2018-01-07T12:41:23.990Z,1024.3
2018-01-07T12:42:27.449Z,1024.2
2018-01-07T12:43:30.549Z,1024.2
2018-01-07T12:44:33.358Z,1024.3
2018-01-07T12:45:36.706Z,1024.3
2018-01-07T12:46:40.719Z,1024.3
2018-01-07T12:47:44.246Z,1024.3
2018-01-07T12:48:46.740Z,1024.2
2018-01-07T12:49:49.254Z,1024.3
2018-01-07T12:50:51.752Z,1024.3
2018-01-07T12:51:54.551Z,1024.3
2018-01-07T12:52:57.069Z,1024.3
2018-01-07T12:54:00.444Z,1024.3
2018-01-07T12:55:02.941Z,1024.3
2018-01-07T12:56:05.740Z,1024.3
2018-01-07T12:57:08.255Z,1024.3
2018-01-07T12:58:10.826Z,1024.3
2018-01-07T12:59:13.621Z,1024.3
2018-01-07T13:00:16.138Z,1024.3
2018-01-07T13:01:18.642Z,1024.3
2018-01-07T13:02:21.391Z,1024.3
2018-01-07T13:03:27.558Z,1024.4
2018-01-07T13:04:33.743Z,1024.4
2018-01-07T13:05:40.919Z,1024.4
2018-01-07T13:06:48.229Z,1024.4